sensor_id;sensor_type;location;lat;lon;timestamp;P1;durP1;ratioP1;P2;durP2;ratioP2
15679;SDS011;15488;48.114;11.532;2022-08-19T00:01:41;4.03;;;3.70;;
15679;SDS011;15488;48.114;11.532;2022-08-19T00:04:11;3.77;;;3.47;;
15679;SDS011;15488;48.114;11.532;2022-08-19T00:06:41;3.53;;;3.20;;
15679;SDS011;15488;48.114;11.532;2022-08-19T00:09:12;4.00;;;3.50;;
15679;SDS011;15488;48.114;11.532;2022-08-19T00:11:43;3.83;;;3.53;;
15679;SDS011;15488;48.114;11.532;2022-08-19T00:14:12;3.80;;;3.40;;
15679;SDS011;15488;48.114;11.532;2022-08-19T00:16:41;4.10;;;3.70;;
15679;SDS011;15488;48.114;11.532;2022-08-19T00:19:10;4.30;;;3.90;;
15679;SDS011;15488;48.114;11.532;2022-08-19T00:21:37;3.87;;;3.57;;
15679;SDS011;15488;48.114;11.532;2022-08-19T00:24:05;4.27;;;3.87;;
15679;SDS011;15488;48.114;11.532;2022-08-19T00:26:34;5.20;;;4.70;;
15679;SDS011;15488;48.114;11.532;2022-08-19T00:29:04;4.63;;;4.23;;
15679;SDS011;15488;48.114;11.532;2022-08-19T00:31:33;4.40;;;4.00;;
15679;SDS011;15488;48.114;11.532;2022-08-19T00:34:00;4.50;;;4.10;;
15679;SDS011;15488;48.114;11.532;2022-08-19T00:36:29;4.70;;;4.30;;
15679;SDS011;15488;48.114;11.532;2022-08-19T00:38:58;4.53;;;4.13;;
15679;SDS011;15488;48.114;11.532;2022-08-19T00:41:26;4.77;;;4.37;;
15679;SDS011;15488;48.114;11.532;2022-08-19T00:43:57;4.97;;;4.47;;
15679;SDS011;15488;48.114;11.532;2022-08-19T00:46:28;5.00;;;4.50;;
15679;SDS011;15488;48.114;11.532;2022-08-19T00:48:56;4.80;;;4.33;;
15679;SDS011;15488;48.114;11.532;2022-08-19T00:51:24;4.73;;;4.33;;
15679;SDS011;15488;48.114;11.532;2022-08-19T00:53:54;4.93;;;4.43;;
15679;SDS011;15488;48.114;11.532;2022-08-19T00:56:23;5.13;;;4.63;;
15679;SDS011;15488;48.114;11.532;2022-08-19T00:58:51;5.37;;;4.87;;
15679;SDS011;15488;48.114;11.532;2022-08-19T01:01:20;5.50;;;4.47;;
15679;SDS011;15488;48.114;11.532;2022-08-19T01:03:49;5.07;;;4.57;;
15679;SDS011;15488;48.114;11.532;2022-08-19T01:06:17;5.23;;;4.73;;
15679;SDS011;15488;48.114;11.532;2022-08-19T01:08:44;6.10;;;5.13;;
15679;SDS011;15488;48.114;11.532;2022-08-19T01:11:12;5.43;;;4.93;;
15679;SDS011;15488;48.114;11.532;2022-08-19T01:13:39;5.67;;;4.87;;
15679;SDS011;15488;48.114;11.532;2022-08-19T01:16:08;5.77;;;5.17;;
15679;SDS011;15488;48.114;11.532;2022-08-19T01:18:36;5.93;;;5.37;;
15679;SDS011;15488;48.114;11.532;2022-08-19T01:21:10;6.17;;;5.57;;
15679;SDS011;15488;48.114;11.532;2022-08-19T01:23:45;5.73;;;5.13;;
15679;SDS011;15488;48.114;11.532;2022-08-19T01:26:14;5.60;;;5.00;;
15679;SDS011;15488;48.114;11.532;2022-08-19T01:28:44;7.13;;;5.73;;
15679;SDS011;15488;48.114;11.532;2022-08-19T01:31:14;5.87;;;5.27;;
15679;SDS011;15488;48.114;11.532;2022-08-19T01:33:43;6.60;;;5.90;;
15679;SDS011;15488;48.114;11.532;2022-08-19T01:36:16;6.23;;;5.60;;
15679;SDS011;15488;48.114;11.532;2022-08-19T01:38:51;6.07;;;5.30;;
15679;SDS011;15488;48.114;11.532;2022-08-19T01:41:19;6.10;;;5.30;;
15679;SDS011;15488;48.114;11.532;2022-08-19T01:43:48;6.10;;;5.50;;
15679;SDS011;15488;48.114;11.532;2022-08-19T01:46:16;7.70;;;5.83;;
15679;SDS011;15488;48.114;11.532;2022-08-19T01:48:45;6.53;;;5.47;;
15679;SDS011;15488;48.114;11.532;2022-08-19T01:51:13;7.03;;;5.77;;
15679;SDS011;15488;48.114;11.532;2022-08-19T01:53:41;5.50;;;5.00;;
15679;SDS011;15488;48.114;11.532;2022-08-19T01:56:10;5.83;;;5.17;;
15679;SDS011;15488;48.114;11.532;2022-08-19T01:58:38;5.83;;;5.23;;
15679;SDS011;15488;48.114;11.532;2022-08-19T02:01:12;6.67;;;4.93;;
15679;SDS011;15488;48.114;11.532;2022-08-19T02:03:40;6.57;;;5.30;;
15679;SDS011;15488;48.114;11.532;2022-08-19T02:06:08;5.17;;;4.47;;
15679;SDS011;15488;48.114;11.532;2022-08-19T02:08:36;5.53;;;5.03;;
15679;SDS011;15488;48.114;11.532;2022-08-19T02:11:05;5.90;;;5.27;;
15679;SDS011;15488;48.114;11.532;2022-08-19T02:13:34;5.80;;;5.20;;
15679;SDS011;15488;48.114;11.532;2022-08-19T02:16:02;5.63;;;5.07;;
15679;SDS011;15488;48.114;11.532;2022-08-19T02:18:30;5.50;;;5.00;;
15679;SDS011;15488;48.114;11.532;2022-08-19T02:20:58;5.10;;;4.60;;
15679;SDS011;15488;48.114;11.532;2022-08-19T02:23:26;5.60;;;4.70;;
15679;SDS011;15488;48.114;11.532;2022-08-19T02:25:53;5.27;;;4.77;;
15679;SDS011;15488;48.114;11.532;2022-08-19T02:28:21;5.23;;;4.73;;
15679;SDS011;15488;48.114;11.532;2022-08-19T02:30:49;5.33;;;4.83;;
15679;SDS011;15488;48.114;11.532;2022-08-19T02:33:17;4.90;;;4.47;;
15679;SDS011;15488;48.114;11.532;2022-08-19T02:35:45;5.20;;;4.47;;
15679;SDS011;15488;48.114;11.532;2022-08-19T02:38:13;4.80;;;4.40;;
15679;SDS011;15488;48.114;11.532;2022-08-19T02:40:53;5.13;;;4.63;;
15679;SDS011;15488;48.114;11.532;2022-08-19T02:43:22;6.60;;;4.53;;
15679;SDS011;15488;48.114;11.532;2022-08-19T02:45:52;4.93;;;4.50;;
15679;SDS011;15488;48.114;11.532;2022-08-19T02:48:20;5.10;;;4.30;;
15679;SDS011;15488;48.114;11.532;2022-08-19T02:50:50;4.60;;;4.20;;
15679;SDS011;15488;48.114;11.532;2022-08-19T02:53:20;5.53;;;4.23;;
15679;SDS011;15488;48.114;11.532;2022-08-19T02:55:49;5.17;;;4.67;;
15679;SDS011;15488;48.114;11.532;2022-08-19T02:58:16;4.43;;;4.03;;
15679;SDS011;15488;48.114;11.532;2022-08-19T03:00:46;4.50;;;4.10;;
15679;SDS011;15488;48.114;11.532;2022-08-19T03:03:17;4.97;;;4.47;;
15679;SDS011;15488;48.114;11.532;2022-08-19T03:05:45;4.93;;;4.43;;
15679;SDS011;15488;48.114;11.532;2022-08-19T03:08:13;4.67;;;4.27;;
15679;SDS011;15488;48.114;11.532;2022-08-19T03:10:41;4.53;;;4.13;;
15679;SDS011;15488;48.114;11.532;2022-08-19T03:13:10;5.10;;;4.60;;
15679;SDS011;15488;48.114;11.532;2022-08-19T03:15:40;4.80;;;4.30;;
15679;SDS011;15488;48.114;11.532;2022-08-19T03:18:08;4.67;;;4.27;;
15679;SDS011;15488;48.114;11.532;2022-08-19T03:20:41;4.50;;;4.00;;
15679;SDS011;15488;48.114;11.532;2022-08-19T03:23:09;4.80;;;4.30;;
15679;SDS011;15488;48.114;11.532;2022-08-19T03:25:39;5.20;;;4.30;;
15679;SDS011;15488;48.114;11.532;2022-08-19T03:28:09;4.43;;;4.03;;
15679;SDS011;15488;48.114;11.532;2022-08-19T03:30:37;5.10;;;4.60;;
15679;SDS011;15488;48.114;11.532;2022-08-19T03:33:06;4.97;;;4.10;;
15679;SDS011;15488;48.114;11.532;2022-08-19T03:35:33;5.10;;;4.60;;
15679;SDS011;15488;48.114;11.532;2022-08-19T03:38:03;4.87;;;4.20;;
15679;SDS011;15488;48.114;11.532;2022-08-19T03:40:31;4.77;;;4.37;;
15679;SDS011;15488;48.114;11.532;2022-08-19T03:43:02;5.00;;;4.27;;
15679;SDS011;15488;48.114;11.532;2022-08-19T03:45:30;4.50;;;4.10;;
15679;SDS011;15488;48.114;11.532;2022-08-19T03:47:58;5.07;;;4.57;;
15679;SDS011;15488;48.114;11.532;2022-08-19T03:50:25;4.27;;;3.90;;
15679;SDS011;15488;48.114;11.532;2022-08-19T03:52:52;4.40;;;4.00;;
15679;SDS011;15488;48.114;11.532;2022-08-19T03:55:21;4.53;;;4.13;;
15679;SDS011;15488;48.114;11.532;2022-08-19T03:57:49;4.20;;;3.80;;
15679;SDS011;15488;48.114;11.532;2022-08-19T04:00:16;4.80;;;4.10;;
15679;SDS011;15488;48.114;11.532;2022-08-19T04:02:44;4.70;;;4.30;;
15679;SDS011;15488;48.114;11.532;2022-08-19T04:05:12;4.60;;;4.20;;
15679;SDS011;15488;48.114;11.532;2022-08-19T04:07:40;4.77;;;4.37;;
15679;SDS011;15488;48.114;11.532;2022-08-19T04:10:08;5.10;;;4.03;;
15679;SDS011;15488;48.114;11.532;2022-08-19T04:12:37;4.57;;;4.17;;
15679;SDS011;15488;48.114;11.532;2022-08-19T04:15:04;4.60;;;4.20;;
15679;SDS011;15488;48.114;11.532;2022-08-19T04:17:33;4.93;;;4.43;;
15679;SDS011;15488;48.114;11.532;2022-08-19T04:20:00;5.23;;;4.73;;
15679;SDS011;15488;48.114;11.532;2022-08-19T04:22:28;4.93;;;4.30;;
15679;SDS011;15488;48.114;11.532;2022-08-19T04:24:56;5.73;;;4.70;;
15679;SDS011;15488;48.114;11.532;2022-08-19T04:27:23;5.53;;;4.97;;
15679;SDS011;15488;48.114;11.532;2022-08-19T04:29:52;5.80;;;5.10;;
15679;SDS011;15488;48.114;11.532;2022-08-19T04:32:20;5.83;;;5.20;;
15679;SDS011;15488;48.114;11.532;2022-08-19T04:34:47;5.43;;;4.90;;
15679;SDS011;15488;48.114;11.532;2022-08-19T04:37:15;5.70;;;5.20;;
15679;SDS011;15488;48.114;11.532;2022-08-19T04:39:42;5.30;;;4.80;;
15679;SDS011;15488;48.114;11.532;2022-08-19T04:42:23;6.40;;;4.60;;
15679;SDS011;15488;48.114;11.532;2022-08-19T04:45:09;4.87;;;4.37;;
15679;SDS011;15488;48.114;11.532;2022-08-19T04:47:38;5.27;;;4.33;;
15679;SDS011;15488;48.114;11.532;2022-08-19T04:50:08;5.43;;;4.90;;
15679;SDS011;15488;48.114;11.532;2022-08-19T04:52:37;5.97;;;5.20;;
15679;SDS011;15488;48.114;11.532;2022-08-19T04:55:08;5.77;;;5.17;;
15679;SDS011;15488;48.114;11.532;2022-08-19T04:57:36;5.50;;;4.90;;
15679;SDS011;15488;48.114;11.532;2022-08-19T05:00:06;5.37;;;4.87;;
15679;SDS011;15488;48.114;11.532;2022-08-19T05:02:36;6.43;;;5.03;;
15679;SDS011;15488;48.114;11.532;2022-08-19T05:05:04;5.50;;;5.00;;
15679;SDS011;15488;48.114;11.532;2022-08-19T05:07:33;5.50;;;4.83;;
15679;SDS011;15488;48.114;11.532;2022-08-19T05:10:00;5.67;;;5.10;;
15679;SDS011;15488;48.114;11.532;2022-08-19T05:12:29;5.70;;;5.10;;
15679;SDS011;15488;48.114;11.532;2022-08-19T05:14:57;5.53;;;4.93;;
15679;SDS011;15488;48.114;11.532;2022-08-19T05:17:27;5.67;;;5.17;;
15679;SDS011;15488;48.114;11.532;2022-08-19T05:19:54;5.77;;;4.77;;
15679;SDS011;15488;48.114;11.532;2022-08-19T05:22:39;4.93;;;4.43;;
15679;SDS011;15488;48.114;11.532;2022-08-19T05:25:09;6.13;;;5.00;;
15679;SDS011;15488;48.114;11.532;2022-08-19T05:27:39;5.17;;;4.67;;
15679;SDS011;15488;48.114;11.532;2022-08-19T05:30:08;5.00;;;4.50;;
15679;SDS011;15488;48.114;11.532;2022-08-19T05:32:38;6.37;;;4.87;;
15679;SDS011;15488;48.114;11.532;2022-08-19T05:35:06;6.27;;;5.00;;
15679;SDS011;15488;48.114;11.532;2022-08-19T05:37:35;5.13;;;4.63;;
15679;SDS011;15488;48.114;11.532;2022-08-19T05:40:05;5.60;;;4.73;;
15679;SDS011;15488;48.114;11.532;2022-08-19T05:42:33;5.73;;;5.07;;
15679;SDS011;15488;48.114;11.532;2022-08-19T05:45:01;6.07;;;4.83;;
15679;SDS011;15488;48.114;11.532;2022-08-19T05:47:29;6.43;;;5.00;;
15679;SDS011;15488;48.114;11.532;2022-08-19T05:49:58;6.50;;;5.53;;
15679;SDS011;15488;48.114;11.532;2022-08-19T05:52:26;5.63;;;4.97;;
15679;SDS011;15488;48.114;11.532;2022-08-19T05:54:55;6.87;;;5.13;;
15679;SDS011;15488;48.114;11.532;2022-08-19T05:57:22;6.17;;;5.57;;
15679;SDS011;15488;48.114;11.532;2022-08-19T05:59:50;6.63;;;5.30;;
15679;SDS011;15488;48.114;11.532;2022-08-19T06:02:18;8.13;;;6.33;;
15679;SDS011;15488;48.114;11.532;2022-08-19T06:04:46;7.33;;;6.03;;
15679;SDS011;15488;48.114;11.532;2022-08-19T06:07:15;7.10;;;6.20;;
15679;SDS011;15488;48.114;11.532;2022-08-19T06:09:44;7.37;;;6.47;;
15679;SDS011;15488;48.114;11.532;2022-08-19T06:12:11;7.50;;;6.60;;
15679;SDS011;15488;48.114;11.532;2022-08-19T06:14:39;8.23;;;7.07;;
15679;SDS011;15488;48.114;11.532;2022-08-19T06:17:07;8.77;;;7.13;;
15679;SDS011;15488;48.114;11.532;2022-08-19T06:19:34;8.23;;;7.30;;
15679;SDS011;15488;48.114;11.532;2022-08-19T06:22:03;8.07;;;7.27;;
15679;SDS011;15488;48.114;11.532;2022-08-19T06:24:32;8.27;;;7.07;;
15679;SDS011;15488;48.114;11.532;2022-08-19T06:27:00;8.30;;;6.93;;
15679;SDS011;15488;48.114;11.532;2022-08-19T06:29:28;7.80;;;7.00;;
15679;SDS011;15488;48.114;11.532;2022-08-19T06:31:57;8.70;;;7.80;;
15679;SDS011;15488;48.114;11.532;2022-08-19T06:34:26;8.10;;;6.87;;
15679;SDS011;15488;48.114;11.532;2022-08-19T06:36:56;8.40;;;7.53;;
15679;SDS011;15488;48.114;11.532;2022-08-19T06:39:26;8.57;;;7.70;;
15679;SDS011;15488;48.114;11.532;2022-08-19T06:41:58;7.93;;;7.17;;
15679;SDS011;15488;48.114;11.532;2022-08-19T06:44:28;8.83;;;7.13;;
15679;SDS011;15488;48.114;11.532;2022-08-19T06:47:01;8.60;;;7.53;;
15679;SDS011;15488;48.114;11.532;2022-08-19T06:49:30;8.30;;;7.40;;
15679;SDS011;15488;48.114;11.532;2022-08-19T06:51:58;8.33;;;7.43;;
15679;SDS011;15488;48.114;11.532;2022-08-19T06:54:26;8.60;;;7.33;;
15679;SDS011;15488;48.114;11.532;2022-08-19T06:56:54;9.90;;;7.10;;
15679;SDS011;15488;48.114;11.532;2022-08-19T06:59:26;8.03;;;6.90;;
15679;SDS011;15488;48.114;11.532;2022-08-19T07:01:58;9.20;;;6.90;;
15679;SDS011;15488;48.114;11.532;2022-08-19T07:04:27;9.20;;;7.53;;
15679;SDS011;15488;48.114;11.532;2022-08-19T07:06:57;9.13;;;7.60;;
15679;SDS011;15488;48.114;11.532;2022-08-19T07:09:27;8.27;;;7.37;;
15679;SDS011;15488;48.114;11.532;2022-08-19T07:11:55;8.87;;;7.13;;
15679;SDS011;15488;48.114;11.532;2022-08-19T07:14:25;7.97;;;7.17;;
15679;SDS011;15488;48.114;11.532;2022-08-19T07:16:54;7.77;;;6.97;;
15679;SDS011;15488;48.114;11.532;2022-08-19T07:19:23;8.23;;;7.43;;
15679;SDS011;15488;48.114;11.532;2022-08-19T07:21:53;8.43;;;7.40;;
15679;SDS011;15488;48.114;11.532;2022-08-19T07:24:22;9.93;;;7.97;;
15679;SDS011;15488;48.114;11.532;2022-08-19T07:26:52;8.60;;;7.73;;
15679;SDS011;15488;48.114;11.532;2022-08-19T07:29:23;8.77;;;7.87;;
15679;SDS011;15488;48.114;11.532;2022-08-19T07:31:50;9.67;;;8.37;;
15679;SDS011;15488;48.114;11.532;2022-08-19T07:34:21;9.90;;;8.50;;
15679;SDS011;15488;48.114;11.532;2022-08-19T07:36:49;11.07;;;8.30;;
15679;SDS011;15488;48.114;11.532;2022-08-19T07:39:18;9.90;;;8.90;;
15679;SDS011;15488;48.114;11.532;2022-08-19T07:41:48;10.73;;;8.60;;
15679;SDS011;15488;48.114;11.532;2022-08-19T07:44:16;12.63;;;9.23;;
15679;SDS011;15488;48.114;11.532;2022-08-19T07:46:49;12.80;;;9.67;;
15679;SDS011;15488;48.114;11.532;2022-08-19T07:49:17;12.23;;;9.80;;
15679;SDS011;15488;48.114;11.532;2022-08-19T07:51:46;12.23;;;9.93;;
15679;SDS011;15488;48.114;11.532;2022-08-19T07:54:16;11.20;;;10.00;;
15679;SDS011;15488;48.114;11.532;2022-08-19T07:56:44;14.27;;;10.40;;
15679;SDS011;15488;48.114;11.532;2022-08-19T07:59:12;12.10;;;10.63;;
15679;SDS011;15488;48.114;11.532;2022-08-19T08:01:39;14.57;;;11.37;;
15679;SDS011;15488;48.114;11.532;2022-08-19T08:04:08;14.70;;;11.70;;
15679;SDS011;15488;48.114;11.532;2022-08-19T08:06:54;14.67;;;12.10;;
15679;SDS011;15488;48.114;11.532;2022-08-19T08:09:39;13.77;;;11.67;;
15679;SDS011;15488;48.114;11.532;2022-08-19T08:12:09;13.63;;;10.77;;
15679;SDS011;15488;48.114;11.532;2022-08-19T08:14:40;12.97;;;11.57;;
15679;SDS011;15488;48.114;11.532;2022-08-19T08:17:11;14.43;;;12.00;;
15679;SDS011;15488;48.114;11.532;2022-08-19T08:19:40;13.83;;;11.70;;
15679;SDS011;15488;48.114;11.532;2022-08-19T08:22:08;16.23;;;12.70;;
15679;SDS011;15488;48.114;11.532;2022-08-19T08:25:00;15.77;;;13.00;;
15679;SDS011;15488;48.114;11.532;2022-08-19T08:27:29;16.13;;;13.83;;
15679;SDS011;15488;48.114;11.532;2022-08-19T08:29:57;15.33;;;13.40;;
15679;SDS011;15488;48.114;11.532;2022-08-19T08:32:24;16.87;;;13.87;;
15679;SDS011;15488;48.114;11.532;2022-08-19T08:34:53;14.50;;;12.93;;
15679;SDS011;15488;48.114;11.532;2022-08-19T08:37:20;16.57;;;13.30;;
15679;SDS011;15488;48.114;11.532;2022-08-19T08:39:48;15.67;;;13.90;;
15679;SDS011;15488;48.114;11.532;2022-08-19T08:42:17;17.13;;;13.60;;
15679;SDS011;15488;48.114;11.532;2022-08-19T08:44:49;18.23;;;13.37;;
15679;SDS011;15488;48.114;11.532;2022-08-19T08:47:24;15.50;;;13.67;;
15679;SDS011;15488;48.114;11.532;2022-08-19T08:49:56;16.13;;;13.03;;
15679;SDS011;15488;48.114;11.532;2022-08-19T08:52:27;15.13;;;12.83;;
15679;SDS011;15488;48.114;11.532;2022-08-19T08:55:00;14.77;;;13.00;;
15679;SDS011;15488;48.114;11.532;2022-08-19T08:57:35;14.50;;;12.50;;
15679;SDS011;15488;48.114;11.532;2022-08-19T09:00:06;15.60;;;12.13;;
15679;SDS011;15488;48.114;11.532;2022-08-19T09:02:37;13.10;;;11.67;;
15679;SDS011;15488;48.114;11.532;2022-08-19T09:05:06;15.03;;;12.33;;
15679;SDS011;15488;48.114;11.532;2022-08-19T09:07:39;13.57;;;11.53;;
15679;SDS011;15488;48.114;11.532;2022-08-19T09:10:15;16.43;;;11.33;;
15679;SDS011;15488;48.114;11.532;2022-08-19T09:12:50;15.20;;;12.33;;
15679;SDS011;15488;48.114;11.532;2022-08-19T09:15:29;12.73;;;11.27;;
15679;SDS011;15488;48.114;11.532;2022-08-19T09:18:00;15.47;;;12.50;;
15679;SDS011;15488;48.114;11.532;2022-08-19T09:20:30;13.80;;;11.70;;
15679;SDS011;15488;48.114;11.532;2022-08-19T09:22:58;15.67;;;11.67;;
15679;SDS011;15488;48.114;11.532;2022-08-19T09:25:26;13.40;;;11.40;;
15679;SDS011;15488;48.114;11.532;2022-08-19T09:27:54;14.83;;;12.20;;
15679;SDS011;15488;48.114;11.532;2022-08-19T09:30:23;14.83;;;11.60;;
15679;SDS011;15488;48.114;11.532;2022-08-19T09:32:53;12.63;;;11.03;;
15679;SDS011;15488;48.114;11.532;2022-08-19T09:35:21;13.37;;;11.27;;
15679;SDS011;15488;48.114;11.532;2022-08-19T09:37:53;12.63;;;10.60;;
15679;SDS011;15488;48.114;11.532;2022-08-19T09:40:22;12.33;;;10.73;;
15679;SDS011;15488;48.114;11.532;2022-08-19T09:42:50;13.30;;;10.87;;
15679;SDS011;15488;48.114;11.532;2022-08-19T09:45:18;12.83;;;10.70;;
15679;SDS011;15488;48.114;11.532;2022-08-19T09:47:47;13.60;;;10.70;;
15679;SDS011;15488;48.114;11.532;2022-08-19T09:50:16;12.80;;;10.67;;
15679;SDS011;15488;48.114;11.532;2022-08-19T09:52:44;11.87;;;10.43;;
15679;SDS011;15488;48.114;11.532;2022-08-19T09:55:13;13.60;;;11.17;;
15679;SDS011;15488;48.114;11.532;2022-08-19T09:57:41;12.57;;;10.63;;
15679;SDS011;15488;48.114;11.532;2022-08-19T10:00:08;13.07;;;10.83;;
15679;SDS011;15488;48.114;11.532;2022-08-19T10:02:36;12.20;;;10.43;;
15679;SDS011;15488;48.114;11.532;2022-08-19T10:05:04;15.30;;;11.60;;
15679;SDS011;15488;48.114;11.532;2022-08-19T10:07:49;12.53;;;10.33;;
15679;SDS011;15488;48.114;11.532;2022-08-19T10:10:18;12.13;;;10.37;;
15679;SDS011;15488;48.114;11.532;2022-08-19T10:12:46;12.90;;;10.60;;
15679;SDS011;15488;48.114;11.532;2022-08-19T10:15:13;14.00;;;10.53;;
15679;SDS011;15488;48.114;11.532;2022-08-19T10:17:41;12.83;;;10.77;;
15679;SDS011;15488;48.114;11.532;2022-08-19T10:20:09;12.57;;;10.60;;
15679;SDS011;15488;48.114;11.532;2022-08-19T10:22:37;14.27;;;10.93;;
15679;SDS011;15488;48.114;11.532;2022-08-19T10:25:05;12.70;;;10.60;;
15679;SDS011;15488;48.114;11.532;2022-08-19T10:27:35;12.20;;;10.10;;
15679;SDS011;15488;48.114;11.532;2022-08-19T10:30:03;12.33;;;10.17;;
15679;SDS011;15488;48.114;11.532;2022-08-19T10:32:31;12.03;;;10.00;;
15679;SDS011;15488;48.114;11.532;2022-08-19T10:34:58;11.20;;;9.97;;
15679;SDS011;15488;48.114;11.532;2022-08-19T10:37:26;12.13;;;10.17;;
15679;SDS011;15488;48.114;11.532;2022-08-19T10:39:56;13.33;;;10.57;;
15679;SDS011;15488;48.114;11.532;2022-08-19T10:42:24;12.57;;;10.33;;
15679;SDS011;15488;48.114;11.532;2022-08-19T10:44:53;11.73;;;9.33;;
15679;SDS011;15488;48.114;11.532;2022-08-19T10:47:20;14.30;;;10.13;;
15679;SDS011;15488;48.114;11.532;2022-08-19T10:49:49;10.70;;;9.60;;
15679;SDS011;15488;48.114;11.532;2022-08-19T10:52:34;11.33;;;9.17;;
15679;SDS011;15488;48.114;11.532;2022-08-19T10:55:02;10.53;;;8.43;;
15679;SDS011;15488;48.114;11.532;2022-08-19T10:57:48;10.23;;;8.70;;
15679;SDS011;15488;48.114;11.532;2022-08-19T11:00:19;8.90;;;8.00;;
15679;SDS011;15488;48.114;11.532;2022-08-19T11:02:47;9.20;;;8.03;;
15679;SDS011;15488;48.114;11.532;2022-08-19T11:05:15;7.80;;;7.00;;
15679;SDS011;15488;48.114;11.532;2022-08-19T11:07:43;7.67;;;6.90;;
15679;SDS011;15488;48.114;11.532;2022-08-19T11:10:12;7.70;;;6.90;;
15679;SDS011;15488;48.114;11.532;2022-08-19T11:12:44;8.00;;;7.20;;
15679;SDS011;15488;48.114;11.532;2022-08-19T11:15:12;8.10;;;7.30;;
15679;SDS011;15488;48.114;11.532;2022-08-19T11:17:41;7.00;;;6.30;;
15679;SDS011;15488;48.114;11.532;2022-08-19T11:20:09;6.57;;;5.97;;
15679;SDS011;15488;48.114;11.532;2022-08-19T11:22:38;7.10;;;6.40;;
15679;SDS011;15488;48.114;11.532;2022-08-19T11:25:07;8.47;;;7.57;;
15679;SDS011;15488;48.114;11.532;2022-08-19T11:27:37;8.47;;;7.60;;
15679;SDS011;15488;48.114;11.532;2022-08-19T11:30:08;9.70;;;8.30;;
15679;SDS011;15488;48.114;11.532;2022-08-19T11:32:37;7.83;;;6.97;;
15679;SDS011;15488;48.114;11.532;2022-08-19T11:35:07;7.27;;;6.57;;
15679;SDS011;15488;48.114;11.532;2022-08-19T11:37:36;6.83;;;6.10;;
15679;SDS011;15488;48.114;11.532;2022-08-19T11:40:05;6.60;;;6.00;;
15679;SDS011;15488;48.114;11.532;2022-08-19T11:42:34;6.40;;;5.30;;
15679;SDS011;15488;48.114;11.532;2022-08-19T11:45:18;4.90;;;4.50;;
15679;SDS011;15488;48.114;11.532;2022-08-19T11:47:46;4.77;;;4.37;;
15679;SDS011;15488;48.114;11.532;2022-08-19T11:50:15;4.30;;;3.90;;
15679;SDS011;15488;48.114;11.532;2022-08-19T11:52:43;4.10;;;3.43;;
15679;SDS011;15488;48.114;11.532;2022-08-19T11:55:11;4.20;;;3.87;;
15679;SDS011;15488;48.114;11.532;2022-08-19T11:57:39;4.17;;;3.80;;
15679;SDS011;15488;48.114;11.532;2022-08-19T12:00:08;4.40;;;4.00;;
15679;SDS011;15488;48.114;11.532;2022-08-19T12:02:37;3.80;;;3.43;;
15679;SDS011;15488;48.114;11.532;2022-08-19T12:05:05;3.30;;;3.00;;
15679;SDS011;15488;48.114;11.532;2022-08-19T12:07:35;2.70;;;2.50;;
15679;SDS011;15488;48.114;11.532;2022-08-19T12:10:02;2.30;;;2.10;;
15679;SDS011;15488;48.114;11.532;2022-08-19T12:12:30;1.90;;;1.80;;
15679;SDS011;15488;48.114;11.532;2022-08-19T12:14:58;1.90;;;1.80;;
15679;SDS011;15488;48.114;11.532;2022-08-19T12:17:26;1.70;;;1.47;;
15679;SDS011;15488;48.114;11.532;2022-08-19T12:19:54;1.53;;;1.43;;
15679;SDS011;15488;48.114;11.532;2022-08-19T12:22:21;1.33;;;1.23;;
15679;SDS011;15488;48.114;11.532;2022-08-19T12:24:50;1.50;;;1.40;;
15679;SDS011;15488;48.114;11.532;2022-08-19T12:27:18;1.50;;;1.40;;
15679;SDS011;15488;48.114;11.532;2022-08-19T12:29:46;1.47;;;1.37;;
15679;SDS011;15488;48.114;11.532;2022-08-19T12:32:14;1.47;;;1.37;;
15679;SDS011;15488;48.114;11.532;2022-08-19T12:34:42;1.40;;;1.30;;
15679;SDS011;15488;48.114;11.532;2022-08-19T12:37:09;1.80;;;1.70;;
15679;SDS011;15488;48.114;11.532;2022-08-19T12:39:37;1.70;;;1.60;;
15679;SDS011;15488;48.114;11.532;2022-08-19T12:42:08;1.67;;;1.57;;
15679;SDS011;15488;48.114;11.532;2022-08-19T12:44:36;1.40;;;1.30;;
15679;SDS011;15488;48.114;11.532;2022-08-19T12:47:06;1.13;;;1.13;;
15679;SDS011;15488;48.114;11.532;2022-08-19T12:49:35;1.30;;;1.20;;
15679;SDS011;15488;48.114;11.532;2022-08-19T12:52:04;1.40;;;1.30;;
15679;SDS011;15488;48.114;11.532;2022-08-19T12:54:33;1.30;;;1.20;;
15679;SDS011;15488;48.114;11.532;2022-08-19T12:57:04;1.50;;;1.40;;
15679;SDS011;15488;48.114;11.532;2022-08-19T12:59:34;1.63;;;1.53;;
15679;SDS011;15488;48.114;11.532;2022-08-19T13:02:02;1.50;;;1.40;;
15679;SDS011;15488;48.114;11.532;2022-08-19T13:04:31;1.53;;;1.40;;
15679;SDS011;15488;48.114;11.532;2022-08-19T13:07:00;1.30;;;1.20;;
15679;SDS011;15488;48.114;11.532;2022-08-19T13:09:27;1.50;;;1.40;;
15679;SDS011;15488;48.114;11.532;2022-08-19T13:11:55;1.80;;;1.70;;
15679;SDS011;15488;48.114;11.532;2022-08-19T13:14:22;2.03;;;1.80;;
15679;SDS011;15488;48.114;11.532;2022-08-19T13:16:51;1.80;;;1.70;;
15679;SDS011;15488;48.114;11.532;2022-08-19T13:19:19;1.75;;;1.65;;
15679;SDS011;15488;48.114;11.532;2022-08-19T13:21:49;1.63;;;1.52;;
15679;SDS011;15488;48.114;11.532;2022-08-19T13:24:18;1.42;;;1.33;;
15679;SDS011;15488;48.114;11.532;2022-08-19T13:26:46;1.60;;;1.50;;
15679;SDS011;15488;48.114;11.532;2022-08-19T13:29:13;1.38;;;1.35;;
15679;SDS011;15488;48.114;11.532;2022-08-19T13:32:00;1.75;;;1.65;;
15679;SDS011;15488;48.114;11.532;2022-08-19T13:34:44;1.65;;;1.55;;
15679;SDS011;15488;48.114;11.532;2022-08-19T13:37:12;1.88;;;1.70;;
15679;SDS011;15488;48.114;11.532;2022-08-19T13:39:40;1.80;;;1.70;;
15679;SDS011;15488;48.114;11.532;2022-08-19T13:42:07;1.80;;;1.70;;
15679;SDS011;15488;48.114;11.532;2022-08-19T13:44:35;1.98;;;1.88;;
15679;SDS011;15488;48.114;11.532;2022-08-19T13:47:04;2.08;;;1.98;;
15679;SDS011;15488;48.114;11.532;2022-08-19T13:49:33;2.03;;;1.92;;
15679;SDS011;15488;48.114;11.532;2022-08-19T13:52:02;1.85;;;1.75;;
15679;SDS011;15488;48.114;11.532;2022-08-19T13:54:30;1.90;;;1.80;;
15679;SDS011;15488;48.114;11.532;2022-08-19T13:56:58;2.00;;;1.90;;
15679;SDS011;15488;48.114;11.532;2022-08-19T13:59:25;2.10;;;2.00;;
15679;SDS011;15488;48.114;11.532;2022-08-19T14:01:56;2.20;;;2.00;;
15679;SDS011;15488;48.114;11.532;2022-08-19T14:04:26;2.30;;;2.15;;
15679;SDS011;15488;48.114;11.532;2022-08-19T14:06:53;3.25;;;3.05;;
15679;SDS011;15488;48.114;11.532;2022-08-19T14:09:21;2.72;;;2.53;;
15679;SDS011;15488;48.114;11.532;2022-08-19T14:11:48;3.20;;;3.00;;
15679;SDS011;15488;48.114;11.532;2022-08-19T14:14:16;2.92;;;2.72;;
15679;SDS011;15488;48.114;11.532;2022-08-19T14:16:43;2.70;;;2.50;;
15679;SDS011;15488;48.114;11.532;2022-08-19T14:19:11;2.80;;;2.60;;
15679;SDS011;15488;48.114;11.532;2022-08-19T14:21:40;2.80;;;2.60;;
15679;SDS011;15488;48.114;11.532;2022-08-19T14:24:08;2.85;;;2.65;;
15679;SDS011;15488;48.114;11.532;2022-08-19T14:26:35;2.88;;;2.67;;
15679;SDS011;15488;48.114;11.532;2022-08-19T14:29:03;2.80;;;2.60;;
15679;SDS011;15488;48.114;11.532;2022-08-19T14:31:31;2.80;;;2.60;;
15679;SDS011;15488;48.114;11.532;2022-08-19T14:33:58;2.80;;;2.60;;
15679;SDS011;15488;48.114;11.532;2022-08-19T14:36:26;2.60;;;2.40;;
15679;SDS011;15488;48.114;11.532;2022-08-19T14:38:54;2.10;;;2.00;;
15679;SDS011;15488;48.114;11.532;2022-08-19T14:41:22;2.10;;;2.00;;